Time;durP1;ratioP1;P1;durP2;ratioP2;P2;SDS_P1;SDS_P2;PMS_P1;PMS_P2;Temp;Humidity;BMP_temperature;BMP_pressure;BME280_temperature;BME280_humidity;BME280_pressure;Samples;Min_cycle;Max_cycle;Signal;HPM_P1;HPM_P2
2021/06/09 00:02:07;;;;;;;26.88;13.68;;;;;;;14.45;100.00;102202.22;5259972;28;20452;-64
2021/06/09 00:04:38;;;;;;;20.50;13.13;;;;;;;14.39;100.00;102200.16;5247957;28;20016;-64
2021/06/09 00:07:09;;;;;;;24.65;14.57;;;;;;;14.31;100.00;102197.44;5254185;28;20016;-64
2021/06/09 00:09:40;;;;;;;22.20;14.80;;;;;;;14.23;100.00;102198.19;5247201;28;20013;-64
2021/06/09 00:12:10;;;;;;;22.73;12.63;;;;;;;14.18;100.00;102195.13;5259570;28;20036;-63
2021/06/09 00:14:41;;;;;;;24.55;15.30;;;;;;;14.08;100.00;102199.78;5247156;28;20032;-64
2021/06/09 00:17:12;;;;;;;24.25;15.75;;;;;;;13.99;100.00;102198.00;5250823;28;20594;-64
2021/06/09 00:19:42;;;;;;;28.50;15.95;;;;;;;13.92;100.00;102199.66;5248473;28;20459;-63
2021/06/09 00:32:44;;;;;;;27.67;16.07;;;;;;;13.59;100.00;102209.25;5247322;28;20431;-63
2021/06/09 00:35:14;;;;;;;29.67;17.65;;;;;;;13.53;100.00;102209.88;5244829;28;20293;-63
2021/06/09 00:37:45;;;;;;;27.77;16.70;;;;;;;13.46;100.00;102204.25;5257116;28;20058;-63
2021/06/09 00:40:16;;;;;;;27.45;16.17;;;;;;;13.42;100.00;102208.25;5253601;28;20038;-63
2021/06/09 00:43:02;;;;;;;25.92;15.90;;;;;;;13.39;100.00;102203.16;5251022;28;20111;-63
2021/06/09 00:45:33;;;;;;;;;;;;;;;13.39;100.00;102201.31;5248419;28;20412;-64
2021/06/09 00:48:04;;;;;;;26.02;15.52;;;;;;;13.34;100.00;102200.06;5262019;28;20517;-64
2021/06/09 00:50:36;;;;;;;28.80;16.30;;;;;;;13.27;100.00;102199.81;5242984;28;20024;-64
2021/06/09 00:55:57;;;;;;;34.22;17.15;;;;;;;13.13;100.00;102203.84;5252430;28;20023;-63
2021/06/09 00:58:28;;;;;;;26.55;16.23;;;;;;;13.08;100.00;102207.97;5255881;28;20489;-63
2021/06/09 01:01:00;;;;;;;24.80;15.48;;;;;;;13.04;100.00;102201.19;5239936;28;20122;-63
2021/06/09 01:03:31;;;;;;;27.70;17.75;;;;;;;13.00;100.00;102200.63;5254532;28;20112;-63
2021/06/09 01:06:03;;;;;;;25.08;16.77;;;;;;;12.95;100.00;102200.22;5255334;28;20028;-63
2021/06/09 01:08:37;;;;;;;32.08;17.40;;;;;;;12.88;100.00;102199.16;5249361;28;20124;-63
2021/06/09 01:11:14;;;;;;;28.48;17.08;;;;;;;12.80;100.00;102194.50;5240140;28;20377;-63
2021/06/09 01:13:44;;;;;;;29.25;18.17;;;;;;;12.75;100.00;102191.41;5240680;28;20287;-64
2021/06/09 01:16:17;;;;;;;31.33;18.85;;;;;;;12.69;100.00;102190.13;5254301;28;20456;-65
2021/06/09 01:18:47;;;;;;;28.88;18.58;;;;;;;12.64;100.00;102184.34;5249255;28;20104;-64
2021/06/09 01:21:26;;;;;;;35.05;20.23;;;;;;;12.61;100.00;102190.03;5246374;28;20347;-64
2021/06/09 01:23:57;;;;;;;34.78;21.45;;;;;;;12.58;100.00;102187.63;5246391;28;20028;-63
2021/06/09 01:26:30;;;;;;;31.77;19.60;;;;;;;12.57;100.00;102190.47;5240405;28;20024;-63
2021/06/09 01:29:03;;;;;;;38.13;22.02;;;;;;;12.53;100.00;102186.38;5256732;28;20039;-63
2021/06/09 01:31:34;;;;;;;33.42;19.35;;;;;;;12.48;100.00;102188.66;5250527;28;20044;-64
2021/06/09 01:34:05;;;;;;;31.77;19.20;;;;;;;12.43;100.00;102187.25;5258366;28;20020;-64
2021/06/09 01:36:40;;;;;;;40.17;22.75;;;;;;;12.39;100.00;102182.31;5252881;28;20071;-64
2021/06/09 01:39:14;;;;;;;41.42;22.73;;;;;;;12.38;100.00;102183.31;5239897;28;20025;-64
2021/06/09 01:41:48;;;;;;;43.25;24.33;;;;;;;12.35;100.00;102187.16;5250342;28;20066;-64
2021/06/09 01:44:18;;;;;;;35.72;21.95;;;;;;;12.33;100.00;102190.97;5255736;28;20508;-64
2021/06/09 01:46:52;;;;;;;36.20;21.00;;;;;;;12.31;100.00;102184.88;5239862;28;20028;-63
2021/06/09 01:49:27;;;;;;;42.35;23.17;;;;;;;12.29;100.00;102182.31;5260492;28;20126;-63
2021/06/09 01:51:58;;;;;;;34.28;21.08;;;;;;;12.26;100.00;102189.84;5241994;28;20393;-64
2021/06/09 01:54:29;;;;;;;44.20;22.13;;;;;;;12.23;100.00;102182.06;5261412;28;20076;-64
2021/06/09 01:57:01;;;;;;;39.25;23.27;;;;;;;12.19;100.00;102182.34;5247941;28;20447;-64
2021/06/09 01:59:33;;;;;;;33.58;21.08;;;;;;;12.15;100.00;102185.50;5250436;28;20029;-63
2021/06/09 02:02:06;;;;;;;37.60;20.98;;;;;;;12.12;100.00;102185.78;5239020;28;20028;-64
2021/06/09 02:04:41;;;;;;;33.15;20.35;;;;;;;12.09;100.00;102189.56;5240473;28;20024;-64
2021/06/09 02:07:12;;;;;;;38.05;21.60;;;;;;;12.06;100.00;102189.03;5240053;28;20082;-63
2021/06/09 02:09:50;;;;;;;34.33;21.33;;;;;;;12.03;100.00;102186.63;5239271;28;20060;-64
2021/06/09 02:12:21;;;;;;;38.92;21.40;;;;;;;12.01;100.00;102192.16;5247489;28;20032;-65
2021/06/09 02:14:52;;;;;;;40.40;23.65;;;;;;;11.99;100.00;102191.44;5244768;28;20028;-63
2021/06/09 02:17:23;;;;;;;37.22;21.10;;;;;;;11.97;100.00;102187.19;5250628;28;20391;-64
2021/06/09 02:19:54;;;;;;;42.15;23.77;;;;;;;11.92;100.00;102191.16;5259935;28;20020;-64
2021/06/09 02:22:24;;;;;;;38.25;21.42;;;;;;;11.89;100.00;102188.75;5249150;28;20059;-64
2021/06/09 02:24:55;;;;;;;38.42;23.27;;;;;;;11.84;100.00;102188.31;5258660;28;20436;-64
2021/06/09 02:27:26;;;;;;;42.00;23.75;;;;;;;11.81;100.00;102188.59;5247888;28;20031;-64
2021/06/09 02:29:56;;;;;;;37.63;22.67;;;;;;;11.78;100.00;102190.69;5259229;28;20028;-64
2021/06/09 02:32:27;;;;;;;40.10;23.08;;;;;;;11.74;100.00;102189.28;5259480;28;20121;-64
2021/06/09 02:34:58;;;;;;;40.15;21.70;;;;;;;11.72;100.00;102183.22;5239684;28;20402;-64
2021/06/09 02:37:28;;;;;;;33.97;21.48;;;;;;;11.65;100.00;102182.94;5252877;28;20603;-64
2021/06/09 02:39:59;;;;;;;39.88;23.02;;;;;;;11.61;100.00;102176.97;5241839;28;20493;-64
2021/06/09 02:42:29;;;;;;;44.83;24.50;;;;;;;11.60;100.00;102172.59;5249001;28;20067;-64
2021/06/09 02:45:00;;;;;;;46.03;24.92;;;;;;;11.57;100.00;102172.88;5255187;28;20419;-63
2021/06/09 02:47:34;;;;;;;41.97;25.15;;;;;;;11.57;100.00;102175.56;5257831;28;20043;-64
2021/06/09 02:50:05;;;;;;;50.00;26.42;;;;;;;11.56;100.00;102176.56;5246767;28;20016;-64
2021/06/09 02:52:45;;;;;;;42.65;23.42;;;;;;;11.54;100.00;102181.19;5260949;28;20093;-64
2021/06/09 02:55:31;;;;;;;38.15;22.42;;;;;;;11.50;100.00;102181.66;5260976;28;20035;-64
2021/06/09 02:58:11;;;;;;;43.22;22.80;;;;;;;11.45;100.00;102192.81;5251488;28;20017;-64
2021/06/09 03:00:47;;;;;;;40.40;23.98;;;;;;;11.43;100.00;102180.50;5242881;28;20029;-64
2021/06/09 03:03:24;;;;;;;41.45;23.35;;;;;;;11.39;100.00;102188.81;5242357;28;20023;-64
2021/06/09 03:06:01;;;;;;;45.53;25.00;;;;;;;11.35;100.00;102178.53;5242783;28;20085;-64
2021/06/09 03:08:43;;;;;;;42.80;24.88;;;;;;;11.34;100.00;102185.69;5242839;28;20028;-64
2021/06/09 03:11:26;;;;;;;46.88;26.17;;;;;;;11.33;100.00;102197.44;5242280;28;20078;-64
2021/06/09 03:14:03;;;;;;;44.30;25.45;;;;;;;11.33;100.00;102189.38;5243056;28;20029;-64
2021/06/09 03:16:45;;;;;;;45.85;24.55;;;;;;;11.33;100.00;102191.22;5260395;28;20007;-64
2021/06/09 03:19:21;;;;;;;41.03;23.65;;;;;;;11.33;100.00;102186.69;5261788;28;20051;-64
2021/06/09 03:22:03;;;;;;;41.95;23.73;;;;;;;11.34;100.00;102187.53;5264252;28;20454;-65
2021/06/09 03:24:38;;;;;;;46.17;24.58;;;;;;;11.29;100.00;102190.63;5245966;28;20021;-64
2021/06/09 03:27:18;;;;;;;43.92;24.10;;;;;;;11.29;100.00;102193.31;5242841;28;20055;-64
2021/06/09 03:30:05;;;;;;;42.92;23.85;;;;;;;11.29;100.00;102193.31;5262329;28;20023;-63
2021/06/09 03:32:53;;;;;;;48.08;26.40;;;;;;;11.33;100.00;102192.06;5263675;28;20094;-64
2021/06/09 03:35:31;;;;;;;50.08;27.98;;;;;;;11.41;100.00;102191.38;5262931;28;20047;-64
2021/06/09 03:38:05;;;;;;;48.08;25.25;;;;;;;11.45;100.00;102192.81;5250386;28;20334;-64
2021/06/09 03:40:40;;;;;;;43.47;24.65;;;;;;;11.45;100.00;102192.81;5263185;28;20031;-64
2021/06/09 03:43:13;;;;;;;42.25;24.08;;;;;;;11.49;100.00;102183.47;5263222;28;20572;-63
2021/06/09 03:45:49;;;;;;;49.00;25.45;;;;;;;11.53;100.00;102179.50;5263037;28;20023;-64
2021/06/09 03:48:21;;;;;;;51.25;28.15;;;;;;;11.58;100.00;102181.78;5250135;28;20296;-64
2021/06/09 03:50:54;;;;;;;51.72;28.92;;;;;;;11.67;100.00;102180.94;5245596;28;20017;-64
2021/06/09 03:53:27;;;;;;;53.28;28.50;;;;;;;11.77;100.00;102186.31;5241566;28;20408;-64
2021/06/09 03:56:03;;;;;;;47.85;27.38;;;;;;;11.83;100.00;102178.56;5241459;28;20042;-64
2021/06/09 03:58:35;;;;;;;48.88;25.65;;;;;;;11.89;100.00;102182.53;5241594;28;20028;-64
2021/06/09 04:01:08;;;;;;;50.75;28.83;;;;;;;11.97;100.00;102182.66;5241649;28;20020;-64
2021/06/09 04:03:41;;;;;;;46.47;26.55;;;;;;;12.05;100.00;102180.13;5224298;28;20123;-63
2021/06/09 04:06:16;;;;;;;49.95;27.55;;;;;;;12.19;100.00;102186.88;5254712;28;20028;-64
2021/06/09 04:08:48;;;;;;;64.75;32.47;;;;;;;12.33;100.00;102186.44;5249092;28;20387;-64
2021/06/09 04:11:20;;;;;;;67.20;32.88;;;;;;;12.45;100.00;102181.75;5246787;28;20389;-64
2021/06/09 04:13:53;;;;;;;49.72;28.13;;;;;;;12.60;100.00;102190.16;5241349;28;20073;-64
2021/06/09 04:16:34;;;;;;;52.50;28.38;;;;;;;12.72;100.00;102188.16;5244951;28;20089;-64
2021/06/09 04:19:07;;;;;;;52.90;28.52;;;;;;;12.78;100.00;102190.25;5261223;28;20024;-65
2021/06/09 04:21:37;;;;;;;40.58;24.30;;;;;;;12.89;100.00;102182.81;5262634;28;20028;-64
2021/06/09 04:24:10;;;;;;;48.90;25.85;;;;;;;13.01;100.00;102188.03;5248422;28;20038;-64
2021/06/09 04:26:41;;;;;;;44.72;26.55;;;;;;;13.06;100.00;102180.34;5263057;28;20131;-64
2021/06/09 04:29:12;;;;;;;57.28;31.42;;;;;;;13.20;100.00;102182.53;5259216;28;20031;-64
2021/06/09 04:31:43;;;;;;;45.95;28.40;;;;;;;13.38;100.00;102185.28;5251326;28;20396;-64
2021/06/09 04:34:14;;;;;;;57.80;31.58;;;;;;;13.51;100.00;102188.47;5262274;28;20030;-64
2021/06/09 04:36:49;;;;;;;55.33;31.98;;;;;;;13.64;100.00;102180.84;5261999;28;20024;-64
2021/06/09 04:39:20;;;;;;;48.17;28.52;;;;;;;13.83;100.00;102176.28;5262002;28;20035;-64
2021/06/09 04:41:52;;;;;;;55.05;31.95;;;;;;;13.97;100.00;102181.97;5261942;28;20032;-64
2021/06/09 04:44:23;;;;;;;60.55;32.25;;;;;;;14.04;100.00;102174.09;5261740;28;20028;-64
2021/06/09 04:46:53;;;;;;;63.40;33.42;;;;;;;14.16;100.00;102172.84;5262140;28;20034;-64
2021/06/09 04:49:31;;;;;;;60.78;31.65;;;;;;;14.27;100.00;102182.53;5261502;28;20032;-64
2021/06/09 04:52:03;;;;;;;58.03;29.67;;;;;;;14.40;100.00;102188.34;5241959;28;20036;-65
2021/06/09 04:54:35;;;;;;;61.38;32.05;;;;;;;14.57;100.00;102189.34;5240501;28;20105;-64
2021/06/09 04:57:07;;;;;;;75.90;34.67;;;;;;;14.70;100.00;102183.50;5254379;28;20046;-64
2021/06/09 04:59:38;;;;;;;70.93;35.25;;;;;;;14.85;100.00;102183.75;5252094;28;20020;-65
2021/06/09 05:02:08;;;;;;;74.68;36.50;;;;;;;14.97;100.00;102187.88;5260643;28;20054;-64
2021/06/09 05:04:39;;;;;;;66.55;35.05;;;;;;;15.14;100.00;102186.06;5259797;28;20051;-64
2021/06/09 05:07:09;;;;;;;71.05;35.70;;;;;;;15.29;100.00;102185.25;5254067;28;20074;-64
2021/06/09 05:09:40;;;;;;;71.80;36.55;;;;;;;15.48;100.00;102188.69;5254524;28;20023;-64
2021/06/09 05:12:22;;;;;;;77.28;37.75;;;;;;;15.68;100.00;102189.28;5261834;28;20396;-65
2021/06/09 05:15:05;;;;;;;79.13;40.75;;;;;;;15.84;100.00;102183.88;5247196;28;20032;-65
2021/06/09 05:17:44;;;;;;;76.88;38.72;;;;;;;15.97;100.00;102188.78;5260911;28;20081;-65
2021/06/09 05:20:18;;;;;;;83.43;41.38;;;;;;;16.29;100.00;102188.75;5260589;28;20108;-64
2021/06/09 05:23:08;;;;;;;76.27;42.33;;;;;;;16.75;100.00;102191.72;5247650;28;20038;-64
2021/06/09 05:25:40;;;;;;;73.65;41.75;;;;;;;17.80;100.00;102194.09;5248080;28;20481;-65
2021/06/09 05:28:13;;;;;;;75.72;41.90;;;;;;;18.57;100.00;102194.72;5246710;28;20055;-65
2021/06/09 05:30:45;;;;;;;72.28;40.63;;;;;;;19.34;100.00;102193.47;5260493;28;20509;-65
2021/06/09 05:33:17;;;;;;;77.55;42.70;;;;;;;20.00;100.00;102190.63;5251193;28;20455;-65
2021/06/09 05:35:51;;;;;;;82.20;44.42;;;;;;;20.18;100.00;102194.56;5243123;28;20153;-65
2021/06/09 05:38:23;;;;;;;76.80;41.08;;;;;;;20.30;100.00;102194.84;5250290;28;20397;-65
2021/06/09 05:41:00;;;;;;;77.68;40.55;;;;;;;20.47;100.00;102194.56;5258001;28;20012;-65
2021/06/09 05:43:32;;;;;;;77.40;41.95;;;;;;;20.93;100.00;102195.72;5261174;28;20429;-65
2021/06/09 05:46:10;;;;;;;79.68;43.05;;;;;;;20.61;100.00;102197.19;5254097;28;20020;-65
2021/06/09 05:48:43;;;;;;;77.97;42.78;;;;;;;20.38;100.00;102196.56;5241792;28;20100;-65
2021/06/09 05:51:16;;;;;;;81.65;44.97;;;;;;;20.32;100.00;102197.38;5246937;28;20028;-65
2021/06/09 05:53:54;;;;;;;86.47;46.33;;;;;;;20.20;100.00;102193.50;5244302;28;20031;-65
2021/06/09 05:56:24;;;;;;;77.85;45.58;;;;;;;20.26;100.00;102198.16;5261206;28;20126;-65
2021/06/09 05:58:55;;;;;;;86.68;46.17;;;;;;;20.44;100.00;102195.81;5254682;28;20100;-65
2021/06/09 06:01:26;;;;;;;87.38;47.25;;;;;;;20.80;100.00;102200.25;5253348;28;20016;-64
2021/06/09 06:03:57;;;;;;;100.65;51.35;;;;;;;20.80;100.00;102197.53;5240631;28;20024;-66
2021/06/09 06:06:28;;;;;;;86.10;49.78;;;;;;;21.09;100.00;102204.59;5254509;28;20075;-65
2021/06/09 06:08:59;;;;;;;94.43;50.90;;;;;;;21.49;100.00;102200.16;5252447;28;20020;-65
2021/06/09 06:11:29;;;;;;;93.18;51.80;;;;;;;21.57;100.00;102201.84;5239527;28;20331;-65
2021/06/09 06:14:05;;;;;;;94.32;52.13;;;;;;;21.85;100.00;102205.25;5253726;28;20023;-66
2021/06/09 06:16:37;;;;;;;94.20;52.53;;;;;;;22.06;100.00;102206.97;5264925;28;20323;-65
2021/06/09 06:19:08;;;;;;;96.30;53.10;;;;;;;22.40;100.00;102205.94;5264583;28;20462;-65
2021/06/09 06:21:38;;;;;;;94.82;52.05;;;;;;;23.06;100.00;102212.34;5250775;28;20112;-64
2021/06/09 06:24:09;;;;;;;95.70;53.50;;;;;;;23.19;100.00;102212.25;5251632;28;20103;-65
2021/06/09 06:26:40;;;;;;;93.53;55.20;;;;;;;23.48;100.00;102219.91;5257508;28;20028;-65
2021/06/09 06:29:10;;;;;;;104.28;56.22;;;;;;;23.46;100.00;102213.84;5243367;28;20027;-65
2021/06/09 06:31:41;;;;;;;97.32;53.10;;;;;;;23.47;100.00;102220.97;5242913;28;20477;-65
2021/06/09 06:34:16;;;;;;;102.13;56.17;;;;;;;23.68;100.00;102214.34;5259164;28;20491;-65
2021/06/09 06:36:48;;;;;;;98.22;54.80;;;;;;;24.00;100.00;102217.94;5264552;28;20028;-65
2021/06/09 06:39:19;;;;;;;101.95;56.28;;;;;;;23.59;100.00;102221.13;5264508;28;20070;-65
2021/06/09 06:41:51;;;;;;;99.40;55.85;;;;;;;22.90;100.00;102214.50;5264471;28;20024;-65
2021/06/09 06:44:22;;;;;;;102.80;59.47;;;;;;;22.90;100.00;102214.50;5257701;28;20393;-66
2021/06/09 06:46:53;;;;;;;109.22;57.55;;;;;;;23.04;100.00;102211.69;5243742;28;20032;-65
2021/06/09 06:49:25;;;;;;;102.03;56.28;;;;;;;23.08;100.00;102212.94;5263953;28;20081;-65
2021/06/09 06:51:56;;;;;;;95.63;54.58;;;;;;;22.84;100.00;102214.47;5260416;28;20024;-64
2021/06/09 06:54:27;;;;;;;107.18;58.97;;;;;;;22.31;100.00;102209.94;5264851;28;20320;-65
2021/06/09 06:56:58;;;;;;;115.47;60.65;;;;;;;22.03;100.00;102207.38;5250334;28;20051;-64
2021/06/09 06:59:29;;;;;;;101.65;57.10;;;;;;;21.70;100.00;102207.34;5250557;28;20578;-65
2021/06/09 07:02:04;;;;;;;106.80;57.17;;;;;;;21.72;100.00;102211.53;5249534;28;20032;-65
2021/06/09 07:04:35;;;;;;;;;;;;;;;21.67;100.00;102215.94;5257952;28;20417;-64
2021/06/09 07:07:05;;;;;;;106.10;56.55;;;;;;;21.60;100.00;102207.75;5255287;28;19908;-64
2021/06/09 07:09:36;;;;;;;108.00;59.42;;;;;;;21.52;100.00;102215.28;5254446;28;20233;-64
2021/06/09 07:12:07;;;;;;;108.68;59.55;;;;;;;21.57;100.00;102208.13;5262746;28;20377;-65
2021/06/09 07:14:38;;;;;;;106.90;60.53;;;;;;;21.63;100.00;102211.94;5249355;28;20032;-65
2021/06/09 07:17:11;;;;;;;103.60;57.28;;;;;;;21.82;100.00;102204.84;5261920;28;20024;-65
2021/06/09 07:19:42;;;;;;;109.03;58.15;;;;;;;21.65;100.00;102212.59;5262089;28;20032;-64
2021/06/09 07:22:13;;;;;;;104.97;57.13;;;;;;;21.57;100.00;102215.50;5261908;28;20042;-65
2021/06/09 07:24:44;;;;;;;104.65;56.60;;;;;;;21.85;100.00;102210.72;5261215;28;20393;-65
2021/06/09 07:27:17;;;;;;;94.95;53.35;;;;;;;21.97;100.00;102209.03;5261963;28;20024;-65
2021/06/09 07:29:48;;;;;;;86.50;48.88;;;;;;;22.21;100.00;102217.72;5262109;28;20484;-65
2021/06/09 07:32:20;;;;;;;95.65;52.72;;;;;;;22.05;100.00;102212.63;5255266;28;20532;-65
2021/06/09 07:34:50;;;;;;;95.80;51.65;;;;;;;22.02;100.00;102219.34;5248525;28;20396;-65
2021/06/09 07:37:23;;;;;;;90.00;51.38;;;;;;;21.93;100.00;102221.44;5260877;28;20027;-65
2021/06/09 07:39:58;;;;;;;91.57;51.75;;;;;;;22.32;100.00;102218.97;5261264;28;20373;-64
2021/06/09 07:42:30;;;;;;;;;;;;;;;22.56;100.00;102225.69;5256872;28;20033;-64
2021/06/09 07:45:06;;;;;;;86.28;48.25;;;;;;;22.58;100.00;102223.56;5253199;28;19908;-66
2021/06/09 07:47:40;;;;;;;80.93;47.08;;;;;;;22.66;100.00;102231.56;5260892;28;20028;-65
2021/06/09 07:50:13;;;;;;;87.17;47.93;;;;;;;22.75;100.00;102227.56;5257355;28;20024;-65
2021/06/09 07:52:45;;;;;;;78.40;43.20;;;;;;;23.06;97.98;102236.97;5241111;28;20822;-65
2021/06/09 07:55:16;;;;;;;69.38;39.60;;;;;;;22.91;94.27;102239.94;5239534;28;20500;-65
2021/06/09 07:57:49;;;;;;;65.03;36.40;;;;;;;23.02;99.52;102246.66;5249196;28;20016;-65
2021/06/09 08:00:21;;;;;;;71.50;39.03;;;;;;;23.12;91.92;102238.84;5260580;28;20024;-64
2021/06/09 08:02:55;;;;;;;69.70;39.42;;;;;;;23.37;85.51;102244.41;5261261;28;20020;-65
2021/06/09 08:05:27;;;;;;;74.05;40.65;;;;;;;23.49;91.35;102243.53;5260796;28;20046;-65
2021/06/09 08:07:58;;;;;;;63.75;38.83;;;;;;;23.60;90.37;102247.47;5246505;28;20463;-64
2021/06/09 08:10:29;;;;;;;55.30;33.10;;;;;;;23.82;83.13;102237.03;5260534;28;20012;-65
2021/06/09 08:13:01;;;;;;;63.25;35.53;;;;;;;23.87;80.81;102237.22;5258754;28;20023;-64
2021/06/09 08:15:34;;;;;;;61.15;36.40;;;;;;;23.70;82.08;102236.06;5240111;28;20040;-65
2021/06/09 08:18:06;;;;;;;63.78;36.00;;;;;;;23.81;86.17;102234.53;5256822;28;20103;-64
2021/06/09 08:21:01;;;;;;;56.15;32.45;;;;;;;24.11;89.37;102234.72;5259676;28;20020;-64
2021/06/09 08:23:33;;;;;;;49.97;29.35;;;;;;;24.00;78.10;102234.38;5260826;28;20045;-65
2021/06/09 08:26:04;;;;;;;46.90;27.83;;;;;;;24.06;78.40;102235.41;5260444;28;20043;-65
2021/06/09 08:28:36;;;;;;;46.00;26.85;;;;;;;24.08;72.62;102232.44;5250495;28;20056;-65
2021/06/09 08:31:09;;;;;;;42.95;24.95;;;;;;;24.06;79.57;102229.91;5238748;28;20024;-64
2021/06/09 08:33:41;;;;;;;41.10;24.38;;;;;;;24.12;69.53;102236.41;5251582;28;20374;-64
2021/06/09 08:36:14;;;;;;;41.05;24.33;;;;;;;24.06;72.06;102234.56;5246616;28;20016;-65
2021/06/09 08:38:46;;;;;;;36.90;22.08;;;;;;;24.24;67.34;102237.34;5259286;28;20110;-64
2021/06/09 08:41:19;;;;;;;30.55;19.92;;;;;;;24.45;64.38;102238.88;5246949;28;20144;-65
2021/06/09 08:43:50;;;;;;;31.58;19.08;;;;;;;24.71;63.84;102238.63;5257666;28;20035;-65
2021/06/09 08:46:21;;;;;;;29.50;19.13;;;;;;;24.68;65.78;102233.59;5239098;28;20374;-65
2021/06/09 08:48:55;;;;;;;31.50;19.60;;;;;;;24.68;66.01;102233.59;5238766;28;20071;-64
2021/06/09 08:51:27;;;;;;;35.70;20.85;;;;;;;25.00;63.63;102241.69;5253849;28;20107;-64
2021/06/09 08:54:00;;;;;;;29.25;18.85;;;;;;;25.10;67.48;102235.69;5257931;28;20054;-65
2021/06/09 08:56:31;;;;;;;37.13;20.25;;;;;;;25.11;68.11;102242.88;5246369;28;20039;-65
2021/06/09 08:59:03;;;;;;;36.58;18.17;;;;;;;25.56;62.33;102238.69;5246024;28;20020;-64
2021/06/09 09:01:34;;;;;;;27.83;16.13;;;;;;;25.79;56.22;102242.63;5258265;28;20043;-65
2021/06/09 09:04:05;;;;;;;30.65;17.23;;;;;;;25.63;59.89;102241.34;5239052;28;20040;-65
2021/06/09 09:06:36;;;;;;;29.77;17.85;;;;;;;25.66;56.83;102245.56;5238120;28;20452;-65
2021/06/09 09:09:07;;;;;;;43.60;17.90;;;;;;;25.51;60.71;102235.81;5248658;28;20035;-64
2021/06/09 09:11:38;;;;;;;26.23;16.42;;;;;;;25.63;60.80;102246.84;5240644;28;20020;-65
2021/06/09 09:14:08;;;;;;;31.50;19.60;;;;;;;25.74;58.24;102251.53;5238792;28;20023;-64
2021/06/09 09:16:59;;;;;;;30.13;18.02;;;;;;;25.81;59.26;102249.56;5243100;28;20500;-65
2021/06/09 09:19:32;;;;;;;33.72;18.65;;;;;;;25.69;55.21;102245.91;5258879;28;20020;-65
2021/06/09 09:22:03;;;;;;;28.58;16.33;;;;;;;25.76;58.16;102243.09;5259626;28;20020;-64
2021/06/09 09:24:44;;;;;;;38.63;16.42;;;;;;;25.44;59.80;102237.78;5259193;28;20028;-64
2021/06/09 09:27:24;;;;;;;26.23;15.57;;;;;;;26.00;55.09;102244.81;5258365;28;20028;-65
2021/06/09 09:30:14;;;;;;;27.15;14.93;;;;;;;25.98;57.90;102238.72;5258812;28;20035;-65
2021/06/09 09:32:58;;;;;;;27.45;15.45;;;;;;;25.78;60.64;102243.69;5254980;28;20016;-65
2021/06/09 09:35:32;;;;;;;32.50;16.80;;;;;;;25.65;59.64;102241.94;5237793;28;20026;-65
2021/06/09 09:38:11;;;;;;;25.75;13.85;;;;;;;26.04;59.75;102235.03;5259117;28;20036;-65
2021/06/09 09:41:09;;;;;;;26.73;16.25;;;;;;;26.60;57.70;102241.09;5258445;28;20058;-65
2021/06/09 09:43:51;;;;;;;28.38;16.80;;;;;;;26.29;58.10;102236.75;5259582;28;20020;-65
2021/06/09 09:46:27;;;;;;;27.55;16.42;;;;;;;26.44;55.56;102244.56;5258438;28;20095;-64
2021/06/09 09:49:09;;;;;;;29.77;17.80;;;;;;;26.51;54.96;102237.88;5259013;28;20054;-65
2021/06/09 09:51:47;;;;;;;31.08;16.83;;;;;;;26.56;58.44;102240.75;5259255;28;20036;-65
2021/06/09 09:54:25;;;;;;;25.73;13.95;;;;;;;26.72;57.37;102241.09;5258955;28;20035;-65
2021/06/09 09:56:57;;;;;;;29.67;16.58;;;;;;;26.46;55.86;102240.53;5255620;28;20099;-65
2021/06/09 09:59:28;;;;;;;25.20;15.13;;;;;;;26.52;57.34;102246.97;5237888;28;20081;-65
2021/06/09 10:02:04;;;;;;;23.08;15.98;;;;;;;26.90;54.15;102243.69;5238666;28;20110;-65
2021/06/09 10:04:35;;;;;;;23.67;15.13;;;;;;;27.13;54.06;102242.88;5238255;28;20036;-65
2021/06/09 10:07:08;;;;;;;26.23;15.02;;;;;;;27.34;50.15;102244.13;5257900;28;20373;-65
2021/06/09 10:09:43;;;;;;;26.63;13.75;;;;;;;27.26;51.11;102242.59;5244542;28;20035;-65
2021/06/09 10:12:16;;;;;;;24.50;14.73;;;;;;;27.14;49.55;102240.94;5238420;28;20162;-65
2021/06/09 10:14:50;;;;;;;22.98;15.45;;;;;;;26.60;54.11;102239.19;5238453;28;20485;-65
2021/06/09 10:17:24;;;;;;;20.95;14.05;;;;;;;26.60;52.26;102241.09;5248180;28;20176;-65
2021/06/09 10:19:58;;;;;;;24.52;14.93;;;;;;;26.82;50.95;102236.66;5239417;28;20021;-65
2021/06/09 10:22:34;;;;;;;29.40;16.77;;;;;;;26.58;50.17;102241.34;5251699;28;20024;-65
2021/06/09 10:25:06;;;;;;;19.48;13.63;;;;;;;26.70;51.07;102233.06;5259368;28;20028;-65
2021/06/09 10:27:40;;;;;;;21.17;13.57;;;;;;;27.06;51.07;102239.34;5258082;28;20028;-65
2021/06/09 10:30:20;;;;;;;20.90;13.93;;;;;;;26.90;50.47;102232.69;5258460;28;20758;-65
2021/06/09 10:32:53;;;;;;;24.33;15.80;;;;;;;27.04;50.04;102242.38;5259239;28;20399;-65
2021/06/09 10:35:27;;;;;;;19.90;14.02;;;;;;;26.79;51.27;102231.63;5245557;28;20081;-65
2021/06/09 10:37:58;;;;;;;22.47;16.00;;;;;;;27.28;49.09;102228.56;5258412;28;20040;-65
2021/06/09 10:40:30;;;;;;;25.38;14.75;;;;;;;27.17;49.83;102235.78;5243646;28;20074;-65
2021/06/09 10:43:05;;;;;;;23.83;15.98;;;;;;;27.03;53.35;102234.34;5252851;28;20016;-65
2021/06/09 10:45:37;;;;;;;25.17;15.73;;;;;;;27.14;53.58;102230.75;5245265;28;20020;-65
2021/06/09 10:48:09;;;;;;;29.83;17.90;;;;;;;27.16;49.99;102236.88;5260191;28;20028;-65
2021/06/09 10:50:40;;;;;;;28.38;15.57;;;;;;;27.40;54.75;102229.34;5249404;28;20020;-65
2021/06/09 10:53:12;;;;;;;22.08;15.80;;;;;;;27.62;49.70;102227.59;5260129;28;20098;-65
2021/06/09 10:55:43;;;;;;;26.67;15.10;;;;;;;27.51;50.00;102230.38;5240590;28;20028;-65
2021/06/09 10:58:14;;;;;;;23.92;15.70;;;;;;;27.62;48.74;102224.00;5239194;28;20715;-65
2021/06/09 11:00:45;;;;;;;21.60;14.48;;;;;;;27.60;54.56;102229.75;5262690;28;20104;-65
2021/06/09 11:03:16;;;;;;;23.95;15.23;;;;;;;27.95;52.39;102228.75;5263144;28;20488;-65
2021/06/09 11:05:47;;;;;;;27.55;16.35;;;;;;;27.67;53.04;102229.59;5263520;28;20094;-65
2021/06/09 11:08:17;;;;;;;21.70;15.77;;;;;;;27.84;50.74;102224.16;5263415;28;20048;-65
2021/06/09 11:10:49;;;;;;;24.08;15.35;;;;;;;27.94;50.25;102229.84;5262827;28;20066;-65
2021/06/09 11:13:29;;;;;;;25.50;16.67;;;;;;;27.72;50.40;102231.66;5246066;28;20074;-65
2021/06/09 11:16:06;;;;;;;23.75;15.93;;;;;;;27.77;49.13;102229.81;5242542;28;20044;-65
2021/06/09 11:18:41;;;;;;;25.73;17.42;;;;;;;27.74;48.68;102223.97;5261586;28;20019;-65
2021/06/09 11:21:16;;;;;;;22.40;14.60;;;;;;;27.54;54.82;102222.47;5261430;28;20028;-65
2021/06/09 11:23:46;;;;;;;21.58;14.25;;;;;;;27.80;51.97;102222.97;5251437;28;20059;-65
2021/06/09 11:26:26;;;;;;;25.98;15.93;;;;;;;27.71;55.90;102224.44;5259916;28;20387;-65
2021/06/09 11:28:57;;;;;;;25.85;15.93;;;;;;;27.85;53.84;102220.28;5242045;28;20024;-65
2021/06/09 11:31:30;;;;;;;25.73;17.15;;;;;;;27.84;52.58;102221.38;5261117;28;20028;-65
2021/06/09 11:34:03;;;;;;;24.38;15.70;;;;;;;28.16;54.36;102210.59;5263197;28;20149;-65
2021/06/09 11:36:43;;;;;;;20.80;16.15;;;;;;;28.20;53.61;102209.03;5262627;28;20035;-65
2021/06/09 11:39:19;;;;;;;24.65;16.40;;;;;;;28.17;50.20;102203.19;5248815;28;20190;-65
2021/06/09 11:41:51;;;;;;;24.10;14.35;;;;;;;28.24;50.22;102209.38;5255227;28;20409;-65
2021/06/09 11:44:27;;;;;;;23.88;17.08;;;;;;;28.38;48.79;102207.97;5262870;28;20051;-66
2021/06/09 11:47:23;;;;;;;21.35;15.95;;;;;;;28.60;50.33;102203.31;5262156;28;20023;-65